Latest Weather Observations for Mudgee

IDN60801

Issued at 8:04 am EDT Tuesday 23 December 2014 (issued every 30 minutes, with the page automatically refreshed every 10 minutes)

About weather observations | Map of weather stations | Latest weather observations for NSW | Other Formats
Station Details ID: 062101 Name: MUDGEE AIRPORT AWS Lat: -32.56 Lon: 149.61 Height: 471.0 m
Data from the previous 72 hours. | See also: Recent months at Mudgee
Date/Time
EDT
Temp
°C
App
Temp
°C
Dew
Point
Rel
Hum
%
Delta-T
°C
Wind Press
QNH
hPa
Press
MSL
hPa
Rain
since 9 am
mm
Dir
 
Spd
km/h
Gust
km/h
Spd
kts
Gust
kts
23/08:00am 21.0 22.5 19.8 93 0.8 NE 11 15 6 8 1016.2 1014.2 0.0
23/07:30am 19.3 21.2 19.0 98 0.2 N 7 9 4 5 1016.2 1014.2 0.0
23/07:00am 19.0 20.0 18.7 98 0.2 ENE 11 15 6 8 1015.5 1013.4 0.0
23/06:30am 18.8 19.0 18.5 98 0.2 ENE 15 19 8 10 1015.1 1013.0 0.0
23/06:00am 18.6 19.5 18.3 98 0.2 NE 11 15 6 8 1015.7 1013.6 0.0
23/05:30am 19.1 22.3 18.8 98 0.2 CALM 0 9 0 5 1016.0 1014.0 0.0
23/05:00am 19.0 21.6 18.5 97 0.3 SSW 2 6 1 3 1015.4 1013.3 0.0
23/04:30am 19.1 22.1 18.4 96 0.4 CALM 0 0 0 0 1015.1 1013.0 0.0
23/04:00am 19.1 20.9 18.4 96 0.4 S 6 7 3 4 1015.0 1012.9 0.0
23/03:30am 19.2 20.9 18.4 95 0.5 S 7 9 4 5 1014.9 1012.8 0.0
23/03:00am 19.1 20.0 18.4 96 0.4 S 11 13 6 7 1014.9 1012.8 0.0
23/02:30am 19.2 19.7 18.4 95 0.5 S 13 17 7 9 1015.0 1012.9 0.0
23/02:00am 19.2 20.0 18.2 94 0.6 SSW 11 13 6 7 1015.4 1013.3 0.0
23/01:30am 19.5 20.1 17.8 90 1.1 SSE 11 15 6 8 1015.6 1013.5 0.0
23/01:00am 19.6 20.1 18.3 92 0.8 SSE 13 19 7 10 1015.9 1013.9 0.0
23/12:30am 19.8 20.7 18.3 91 0.9 SE 11 17 6 9 1016.0 1014.0 0.0
23/12:00am 20.3 21.8 17.5 84 1.8 ESE 6 9 3 5 1017.0 1015.0 0.0
 
Date/Time
EDT
Temp
°C
App
Temp
°C
Dew
Point
Rel
Hum
%
Delta-T
°C
Wind Press
QNH
hPa
Press
MSL
hPa
Rain
since 9 am
mm
Dir
 
Spd
km/h
Gust
km/h
Spd
kts
Gust
kts
22/11:30pm 20.5 21.8 17.5 83 1.9 NNW 7 9 4 5 1017.5 1015.4 0.0
22/11:00pm 21.6 22.3 17.0 75 2.9 NW 9 15 5 8 1017.7 1015.7 0.0
22/10:30pm 22.6 18.6 15.2 63 4.5 W 30 48 16 26 1016.9 1014.9 0.0
22/10:22pm 21.3 19.2 15.2 68 3.7 SW 20 43 11 23 1017.0 1015.0 0.0
22/10:00pm 21.3 19.8 15.2 68 3.7 S 17 22 9 12 1015.4 1013.3 0.0
22/09:30pm 21.3 20.0 15.8 71 3.4 S 17 20 9 11 1015.4 1013.3 0.0
22/09:00pm 21.5 20.6 15.8 70 3.5 S 15 20 8 11 1015.5 1013.4 0.0
22/08:30pm 22.0 21.7 16.5 71 3.4 SSE 13 20 7 11 1015.4 1013.3 0.0
22/08:00pm 22.5 22.1 16.3 68 3.8 SSE 13 22 7 12 1015.4 1013.3 0.0
22/07:30pm 23.1 22.1 15.7 63 4.5 SE 15 26 8 14 1015.0 1012.9 0.0
22/07:00pm 23.6 22.9 15.4 60 5.0 ESE 13 22 7 12 1015.0 1012.9 0.0
22/06:30pm 23.7 23.5 15.7 61 4.9 SE 11 19 6 10 1015.0 1012.9 0.0
22/06:00pm 24.3 22.8 15.2 57 5.6 SE 17 28 9 15 1014.6 1012.6 0.0
22/05:30pm 24.4 23.0 16.6 61 4.9 S 19 28 10 15 1013.9 1011.9 0.0
22/05:00pm 23.5 20.8 16.5 65 4.4 NE 26 35 14 19 1013.9 1011.9 0.0
22/04:30pm 22.2 19.3 17.1 73 3.2 ENE 28 41 15 22 1014.4 1012.4 0.0
22/04:24pm 22.5 21.0 16.8 70 3.6 ENE 20 41 11 22 1014.6 1012.6 0.0
22/04:00pm 20.8 21.1 17.8 83 1.9 ENE 13 19 7 10 1015.1 1013.0 0.0
22/03:42pm 20.6 15.5 16.8 79 2.4 NNW 39 57 21 31 1015.8 1013.8 0.0
22/03:37pm 18.9 12.9 16.5 86 1.5 NNW 43 57 23 31 1015.5 1013.4 0.0
22/03:31pm 19.8 15.2 16.1 79 2.3 NW 35 56 19 30 1015.6 1013.5 0.0
22/03:30pm 20.1 15.5 16.1 78 2.4 NW 35 52 19 28 1015.7 1013.6 0.0
22/03:26pm 21.7 16.2 14.8 65 4.2 NW 37 56 20 30 1015.2 1013.1 0.0
22/03:17pm 27.4 25.1 13.0 41 8.6 NNW 17 56 9 30 1014.4 1012.4 0.0
22/03:00pm 30.4 29.2 14.1 37 10.0 ENE 13 17 7 9 1013.8 1011.7 0.0
22/02:30pm 30.6 28.4 13.4 35 10.5 NE 17 26 9 14 1014.1 1012.1 0.0
22/02:00pm 30.0 28.3 13.7 37 10.0 NE 15 22 8 12 1014.6 1012.6 0.0
22/01:30pm 31.9 29.4 14.1 34 11.0 NE 20 33 11 18 1015.2 1013.1 0.0
22/01:00pm 30.2 30.2 15.1 40 9.4 E 9 17 5 9 1016.0 1014.0 0.0
22/12:30pm 30.0 28.6 14.5 38 9.6 N 15 30 8 16 1016.5 1014.5 0.0
22/12:00pm 29.8 27.9 15.1 40 9.2 NNE 19 30 10 16 1017.0 1015.0 0.0
22/11:30am 29.3 28.6 15.4 42 8.7 NNE 13 26 7 14 1017.4 1015.3 0.0
22/11:00am 28.1 27.3 15.1 45 8.0 NNE 13 24 7 13 1017.6 1015.5 0.0
22/10:30am 28.4 28.6 16.7 49 7.4 NNE 11 17 6 9 1017.6 1015.5 0.0
22/10:00am 26.8 26.4 16.1 52 6.7 N 13 26 7 14 1017.8 1015.8 0.0
22/09:30am 26.0 24.8 16.0 54 6.2 NNW 17 24 9 13 1018.0 1016.0 0.0
22/09:00am 24.8 25.4 15.7 57 5.6 N 7 15 4 8 1018.1 1016.1 0.0
22/08:30am 24.1 25.2 15.6 59 5.2 ESE 4 7 2 4 1018.0 1016.0 0.0
22/08:00am 22.4 22.7 15.0 63 4.5 S 7 9 4 5 1018.1 1016.1 0.0
22/07:30am 20.2 20.3 13.9 67 3.7 NE 6 7 3 4 1017.7 1015.7 0.0
22/07:00am 19.6 20.2 14.2 71 3.2 ESE 4 7 2 4 1017.5 1015.4 0.0
22/06:30am 17.4 18.5 13.5 78 2.3 CALM 0 0 0 0 1017.2 1015.1 0.0
22/06:00am 16.5 17.6 13.4 82 1.8 CALM 0 0 0 0 1016.5 1014.5 0.0
22/05:30am 16.5 16.3 13.0 80 2.0 N 6 7 3 4 1016.2 1014.2 0.0
22/05:00am 17.2 17.1 13.3 78 2.2 ENE 6 9 3 5 1015.9 1013.9 0.0
22/04:30am 18.7 18.3 13.1 70 3.2 SE 7 13 4 7 1015.7 1013.6 0.0
22/04:00am 18.8 18.5 12.8 68 3.4 SE 6 9 3 5 1015.4 1013.3 0.0
22/03:30am 19.1 18.4 12.1 64 4.0 SE 7 11 4 6 1015.4 1013.3 0.0
22/03:00am 18.7 19.3 12.0 65 3.8 CALM 0 0 0 0 1016.0 1014.0 0.0
22/02:30am 19.5 19.7 12.0 62 4.3 N 2 7 1 4 1016.1 1014.1 0.0
22/02:00am 20.9 19.7 11.5 55 5.3 SE 9 13 5 7 1016.2 1014.2 0.0
22/01:30am 22.0 20.4 11.4 51 6.0 SSE 11 15 6 8 1016.3 1014.3 0.0
22/01:00am 23.0 21.8 11.7 49 6.5 ESE 9 15 5 8 1016.3 1014.3 0.0
22/12:30am 23.6 23.1 12.0 48 6.7 SSE 6 9 3 5 1016.5 1014.5 0.0
22/12:00am 24.1 23.4 11.4 45 7.3 SE 6 9 3 5 1016.5 1014.5 0.0
 
Date/Time
EDT
Temp
°C
App
Temp
°C
Dew
Point
Rel
Hum
%
Delta-T
°C
Wind Press
QNH
hPa
Press
MSL
hPa
Rain
since 9 am
mm
Dir
 
Spd
km/h
Gust
km/h
Spd
kts
Gust
kts
21/11:30pm 24.6 23.3 11.2 43 7.7 ESE 9 17 5 9 1016.2 1014.2 0.0
21/11:00pm 24.8 24.3 10.7 41 8.0 SE 4 9 2 5 1016.3 1014.3 0.0
21/10:30pm 25.3 21.4 10.7 40 8.3 NE 22 30 12 16 1015.8 1013.8 0.0
21/10:00pm 26.0 21.2 10.2 37 9.0 ENE 26 33 14 18 1015.3 1013.2 0.0
21/09:30pm 26.3 22.7 10.5 37 9.0 ENE 20 32 11 17 1015.3 1013.2 0.0
21/09:00pm 27.1 23.4 11.6 38 9.1 NE 22 30 12 16 1015.2 1013.1 0.0
21/08:30pm 27.6 27.1 12.8 40 8.8 ENE 7 11 4 6 1015.0 1012.9 0.0
21/08:00pm 28.8 26.9 11.8 35 10.0 NE 13 15 7 8 1014.5 1012.5 0.0
21/07:30pm 29.1 28.4 12.1 35 10.1 NE 7 9 4 5 1014.2 1012.2 0.0
21/07:00pm 29.3 27.8 11.8 34 10.4 NE 11 13 6 7 1013.9 1011.9 0.0
21/06:30pm 29.7 28.8 11.2 31 10.9 NNE 7 11 4 6 1013.6 1011.5 0.0
21/06:00pm 30.8 29.8 10.2 28 12.0 NNE 6 9 3 5 1013.7 1011.6 0.0
21/05:30pm 30.8 29.6 10.2 28 12.0 ENE 7 13 4 7 1013.8 1011.7 0.0
21/05:00pm 31.2 30.1 10.0 27 12.3 SW 6 9 3 5 1014.1 1012.1 0.0
21/04:30pm 31.6 31.0 10.3 27 12.4 SE 4 9 2 5 1014.3 1012.3 0.0
21/04:00pm 30.7 29.8 10.6 29 11.7 NNE 6 9 3 5 1014.7 1012.7 0.0
21/03:30pm 30.2 28.5 11.2 31 11.2 NNE 11 30 6 16 1015.2 1013.1 0.0
21/03:00pm 29.4 27.3 11.0 32 10.8 N 13 20 7 11 1015.7 1013.6 0.0
21/02:30pm 29.6 28.3 11.2 32 10.8 ENE 9 15 5 8 1016.0 1014.0 0.0
21/02:00pm 28.8 27.9 11.4 34 10.2 NE 7 24 4 13 1016.3 1014.3 0.0
21/01:30pm 29.5 28.4 10.6 31 11.0 WNW 7 13 4 7 1016.6 1014.6 0.0
21/01:00pm 27.9 26.1 11.0 35 9.8 NNW 11 19 6 10 1017.0 1015.0 0.0
21/12:30pm 28.2 26.8 13.3 40 9.0 N 13 19 7 10 1017.7 1015.7 0.0
21/12:00pm 27.0 25.1 13.0 42 8.4 NW 15 24 8 13 1017.9 1015.9 0.0
21/11:30am 26.7 24.5 13.4 43 8.0 NNE 17 24 9 13 1017.9 1015.9 0.0
21/11:00am 25.3 23.3 11.5 42 8.0 NE 13 26 7 14 1018.1 1016.1 0.0
21/10:30am 24.7 21.8 9.8 39 8.4 NE 15 26 8 14 1018.2 1016.2 0.0
21/10:00am 24.0 21.3 8.8 38 8.3 ENE 13 20 7 11 1018.4 1016.4 0.0
21/09:30am 23.0 21.0 8.7 40 7.8 NE 9 17 5 9 1018.8 1016.8 0.0
21/09:00am 21.2 20.1 9.8 48 6.3 ESE 6 13 3 7 1019.0 1017.0 0.0
21/08:30am 19.8 18.5 10.0 53 5.4 SE 7 9 4 5 1019.1 1017.1 0.0
21/08:00am 18.6 16.9 11.2 62 4.1 SSE 11 15 6 8 1019.0 1017.0 0.0
21/07:30am 17.4 14.6 11.4 68 3.3 S 17 20 9 11 1018.5 1016.5 0.0
21/07:00am 16.2 13.7 11.2 72 2.7 SSE 15 20 8 11 1018.2 1016.2 0.0
21/06:30am 15.5 13.1 11.3 76 2.3 SSE 15 19 8 10 1017.9 1015.9 0.0
21/06:00am 14.9 12.3 10.7 76 2.3 SSE 15 17 8 9 1017.6 1015.5 0.0
21/05:30am 14.9 12.6 10.5 75 2.4 SSE 13 15 7 8 1017.4 1015.3 0.0
21/05:00am 15.3 12.6 10.5 73 2.6 SSE 15 19 8 10 1017.2 1015.1 0.0
21/04:30am 15.3 13.4 10.5 73 2.6 SSE 11 13 6 7 1017.2 1015.1 0.0
21/04:00am 15.9 13.9 10.2 69 3.1 SSE 11 13 6 7 1017.0 1015.0 0.0
21/03:30am 16.3 14.4 10.6 69 3.1 SSE 11 15 6 8 1016.8 1014.8 0.0
21/03:00am 17.3 15.8 10.4 64 3.8 SE 9 15 5 8 1017.0 1015.0 0.0
21/02:30am 17.1 16.2 10.7 66 3.5 ESE 6 9 3 5 1017.2 1015.1 0.0
21/02:00am 17.7 16.4 11.3 66 3.6 SSE 9 11 5 6 1017.3 1015.2 0.0
21/01:30am 18.2 16.8 10.8 62 4.1 SSE 9 13 5 7 1017.5 1015.4 0.0
21/01:00am 19.0 16.9 11.3 61 4.3 SSE 13 20 7 11 1017.6 1015.5 0.0
21/12:30am 19.4 17.8 11.4 60 4.5 SE 11 17 6 9 1017.8 1015.8 0.0
21/12:00am 19.7 18.6 12.0 61 4.4 SSE 9 13 5 7 1017.9 1015.9 0.0
 
Date/Time
EDT
Temp
°C
App
Temp
°C
Dew
Point
Rel
Hum
%
Delta-T
°C
Wind Press
QNH
hPa
Press
MSL
hPa
Rain
since 9 am
mm
Dir
 
Spd
km/h
Gust
km/h
Spd
kts
Gust
kts
20/11:30pm 20.3 20.0 11.5 57 5.0 SE 4 11 2 6 1017.8 1015.8 0.0
20/11:00pm 20.9 20.2 11.5 55 5.3 ESE 6 13 3 7 1017.7 1015.7 0.0
20/10:30pm 21.3 20.2 11.9 55 5.4 E 9 22 5 12 1017.5 1015.4 0.0
20/10:00pm 21.7 19.7 11.4 52 5.8 ENE 13 22 7 12 1017.0 1015.0 0.0
20/09:30pm 22.4 20.4 11.5 50 6.2 ENE 13 24 7 13 1016.4 1014.4 0.0
20/09:00pm 23.1 19.0 11.5 48 6.6 NE 24 35 13 19 1015.8 1013.8 0.0
20/08:30pm 24.0 19.8 11.0 44 7.4 NE 24 33 13 18 1015.3 1013.2 0.0
20/08:00pm 24.9 22.3 9.2 37 8.7 NNE 13 22 7 12 1014.9 1012.8 0.0
20/07:30pm 26.6 24.3 7.6 30 10.4 NNE 9 9 5 5 1014.5 1012.5 0.0
20/07:00pm 28.6 27.0 7.8 27 11.5 WSW 6 9 3 5 1014.2 1012.2 0.0
20/06:30pm 28.2 25.4 6.9 26 11.6 WNW 11 19 6 10 1014.0 1012.0 0.0
20/06:00pm 28.5 26.7 7.1 26 11.7 NNE 6 9 3 5 1013.8 1011.7 0.0
20/05:30pm 28.2 25.6 6.3 25 11.8 WSW 9 15 5 8 1013.8 1011.7 0.0
20/05:00pm 27.9 25.7 6.1 25 11.7 NNE 7 13 4 7 1013.8 1011.7 0.0
20/04:30pm 27.5 24.6 6.3 26 11.4 NNW 11 15 6 8 1014.0 1012.0 0.0
20/04:00pm 27.4 25.2 6.2 26 11.3 WNW 7 13 4 7 1014.5 1012.5 0.0
20/03:30pm 26.6 24.0 6.1 27 10.9 SSE 9 17 5 9 1015.0 1012.9 0.0
20/03:00pm 26.7 23.8 8.2 31 10.2 NW 13 20 7 11 1015.4 1013.3 0.0
20/02:30pm 26.2 23.9 7.3 30 10.2 E 9 17 5 9 1015.7 1013.6 0.0
20/02:00pm 26.0 24.4 8.0 32 9.8 SSW 6 11 3 6 1016.0 1014.0 0.0
20/01:30pm 25.2 23.4 7.8 33 9.4 WNW 7 15 4 8 1016.3 1014.3 0.0
20/01:00pm 24.4 22.5 6.6 32 9.4 WSW 6 9 3 5 1016.8 1014.8 0.0
20/12:30pm 23.6 20.7 6.4 33 9.0 NE 11 17 6 9 1017.3 1015.2 0.0
20/12:00pm 23.0 21.4 10.1 44 7.2 ENE 9 17 5 9 1017.7 1015.7 0.0
20/11:30am 21.9 20.9 10.4 48 6.4 NE 6 15 3 8 1017.9 1015.9 0.0
20/11:00am 21.3 19.8 10.5 50 6.0 E 9 17 5 9 1018.0 1016.0 0.0
20/10:30am 20.7 18.2 11.1 54 5.4 NE 15 20 8 11 1018.2 1016.2 0.0
20/10:00am 19.8 17.3 11.0 57 4.9 NE 15 24 8 13 1018.3 1016.3 0.0
20/09:30am 19.8 17.1 11.6 59 4.6 NE 17 26 9 14 1018.3 1016.3 0.0
20/09:00am 18.1 15.1 10.5 61 4.2 E 17 26 9 14 1018.4 1016.4 0.0
20/08:30am 17.4 15.0 10.1 62 4.0 SE 13 20 7 11 1018.3 1016.3 0.0

Other Formats:

Comma delimited format used in spreadsheet applications
http://www.bom.gov.au/fwo/IDN60801/IDN60801.94727.axf

JavaScript Object Notation format (JSON) in row-major order
http://www.bom.gov.au/fwo/IDN60801/IDN60801.94727.json